createdAt,value
2018-08-23T00:00:50.793Z,100128.16
2018-08-23T00:03:25.793Z,100120.40
2018-08-23T00:05:55.321Z,100119.14
2018-08-23T00:08:25.701Z,100118.54
2018-08-23T00:10:55.188Z,100120.09
2018-08-23T00:13:24.389Z,100122.78
2018-08-23T00:15:53.097Z,100119.80
2018-08-23T00:18:22.045Z,100119.02
2018-08-23T00:20:50.781Z,100112.57
2018-08-23T00:23:20.980Z,100110.20
2018-08-23T00:25:49.789Z,100112.14
2018-08-23T00:28:19.959Z,100107.45
2018-08-23T00:30:48.457Z,100107.39
2018-08-23T00:33:17.770Z,100109.59
2018-08-23T00:35:47.029Z,100101.95
2018-08-23T00:38:16.302Z,100101.13
2018-08-23T00:40:47.613Z,100100.31
2018-08-23T00:43:16.087Z,100102.08
2018-08-23T00:45:44.902Z,100096.84
2018-08-23T00:48:13.961Z,100095.40
2018-08-23T00:50:52.792Z,100088.78
2018-08-23T00:53:23.473Z,100093.47
2018-08-23T00:56:04.722Z,100093.14
2018-08-23T00:58:34.610Z,100096.16
2018-08-23T01:01:04.656Z,100091.27
2018-08-23T01:03:35.757Z,100084.39
2018-08-23T01:06:09.085Z,100082.81
2018-08-23T01:08:37.509Z,100082.26
2018-08-23T01:11:08.511Z,100082.38
2018-08-23T01:13:37.433Z,100079.56
2018-08-23T01:16:06.676Z,100080.44
2018-08-23T01:18:38.085Z,100079.94
2018-08-23T01:21:08.844Z,100079.62
2018-08-23T01:23:38.037Z,100075.88
2018-08-23T01:26:08.179Z,100071.43
2018-08-23T01:28:37.339Z,100076.22
2018-08-23T01:31:21.817Z,100064.23
2018-08-23T01:33:54.084Z,100059.27
2018-08-23T01:36:27.837Z,100063.33
2018-08-23T01:38:57.518Z,100055.40
2018-08-23T01:41:26.230Z,100055.72
2018-08-23T01:43:55.482Z,100054.95
2018-08-23T01:46:31.505Z,100059.18
2018-08-23T01:49:02.351Z,100051.05
2018-08-23T01:51:32.463Z,100056.54
2018-08-23T01:54:01.045Z,100053.19
2018-08-23T01:56:30.299Z,100050.91
2018-08-23T01:58:58.946Z,100052.86
2018-08-23T02:01:28.226Z,100047.97
2018-08-23T02:03:57.216Z,100049.41
2018-08-23T02:06:32.196Z,100042.09
2018-08-23T02:09:01.893Z,100044.42
2018-08-23T02:11:31.357Z,100046.34
2018-08-23T02:14:00.534Z,100042.81
2018-08-23T02:16:39.240Z,100037.01
2018-08-23T02:19:08.400Z,100031.88
2018-08-23T02:21:37.078Z,100035.83
2018-08-23T02:24:07.469Z,100032.70
2018-08-23T02:26:36.457Z,100034.41
2018-08-23T02:29:05.959Z,100031.47
2018-08-23T02:31:36.063Z,100031.02
2018-08-23T02:34:04.576Z,100029.63
2018-08-23T02:36:36.517Z,100025.56
2018-08-23T02:39:09.631Z,100025.52
2018-08-23T02:41:42.073Z,100021.36
2018-08-23T02:44:12.134Z,100023.78
2018-08-23T02:46:42.062Z,100017.88
2018-08-23T02:49:13.234Z,100011.58
2018-08-23T02:51:47.203Z,100010.38
2018-08-23T02:54:16.497Z,100005.84
2018-08-23T02:56:50.603Z,100001.81
2018-08-23T02:59:19.658Z,99996.19
2018-08-23T03:01:51.097Z,99999.72
2018-08-23T03:04:26.277Z,99999.58
2018-08-23T03:07:04.860Z,99997.25
2018-08-23T03:09:36.533Z,99997.98
2018-08-23T03:12:11.282Z,99994.78
2018-08-23T03:14:41.216Z,100000.86
2018-08-23T03:17:17.241Z,99996.39
2018-08-23T03:20:10.101Z,99997.05
2018-08-23T03:22:40.545Z,99992.95
2018-08-23T03:25:12.010Z,99990.62
2018-08-23T03:27:45.702Z,99988.57
2018-08-23T03:30:17.027Z,99989.75
2018-08-23T03:32:46.381Z,99990.62
2018-08-23T03:35:15.777Z,99995.14
2018-08-23T03:37:44.831Z,99993.95
2018-08-23T03:40:15.289Z,99993.86
2018-08-23T03:42:44.917Z,99995.66
2018-08-23T03:45:19.793Z,99993.37
2018-08-23T03:47:51.945Z,99994.44
2018-08-23T03:50:21.917Z,99996.29
2018-08-23T03:52:53.375Z,99994.56
2018-08-23T03:55:24.697Z,100005.08
2018-08-23T03:57:58.725Z,100002.69
2018-08-23T04:00:33.245Z,99998.73
2018-08-23T04:03:03.514Z,99995.23
2018-08-23T04:05:32.709Z,100000.19
2018-08-23T04:08:01.718Z,99999.52
2018-08-23T04:10:31.201Z,99998.41
2018-08-23T04:13:00.549Z,99996.80
2018-08-23T04:15:30.524Z,99991.46
2018-08-23T04:18:02.951Z,99988.69
2018-08-23T04:20:31.406Z,99986.67
2018-08-23T04:22:59.778Z,99986.65
2018-08-23T04:25:28.169Z,99988.15
2018-08-23T04:27:56.546Z,99985.03
2018-08-23T04:30:24.925Z,99985.75
2018-08-23T04:32:53.301Z,99984.48
2018-08-23T04:35:24.803Z,99984.97
2018-08-23T04:37:53.171Z,99989.45
2018-08-23T04:40:21.544Z,99993.30
2018-08-23T04:42:49.977Z,99996.41
2018-08-23T04:45:23.417Z,99997.73
2018-08-23T04:47:57.159Z,100003.50
2018-08-23T04:50:26.114Z,99995.66
2018-08-23T04:52:54.637Z,99986.54
2018-08-23T04:55:23.411Z,99985.83
2018-08-23T04:57:51.895Z,99984.53
2018-08-23T05:00:20.321Z,99980.03
2018-08-23T05:02:48.734Z,99978.23
2018-08-23T05:05:17.210Z,99976.58
2018-08-23T05:07:45.674Z,99977.48
2018-08-23T05:10:14.258Z,99968.17
2018-08-23T05:12:42.849Z,99971.57
2018-08-23T05:15:11.361Z,99970.16
2018-08-23T05:17:39.813Z,99970.41
2018-08-23T05:20:08.598Z,99974.59
2018-08-23T05:22:37.026Z,99976.28
2018-08-23T05:25:14.261Z,99971.73
2018-08-23T05:27:59.121Z,99970.17
2018-08-23T05:30:28.700Z,99969.08
2018-08-23T05:33:02.437Z,99964.33
2018-08-23T05:35:31.522Z,99965.65
2018-08-23T05:38:00.618Z,99967.02
2018-08-23T05:40:33.596Z,99965.20
2018-08-23T05:43:02.057Z,99968.27
2018-08-23T05:45:35.865Z,99962.82
2018-08-23T05:48:20.118Z,99964.13
2018-08-23T05:50:48.571Z,99957.14
2018-08-23T05:53:18.000Z,99958.86
2018-08-23T05:55:48.982Z,99960.97
2018-08-23T05:58:23.497Z,99962.39
2018-08-23T06:00:52.108Z,99951.19
2018-08-23T06:03:26.954Z,99946.53
2018-08-23T06:05:56.359Z,99945.92
2018-08-23T06:08:24.885Z,99940.48
2018-08-23T06:10:58.530Z,99942.13
2018-08-23T06:13:26.942Z,99941.03
2018-08-23T06:15:56.622Z,99933.35
2018-08-23T06:18:25.920Z,99924.59
2018-08-23T06:20:54.357Z,99933.08
2018-08-23T06:23:27.245Z,99933.24
2018-08-23T06:25:55.650Z,99944.23
2018-08-23T06:28:26.886Z,99942.48
2018-08-23T06:30:56.209Z,99938.23
2018-08-23T06:33:36.429Z,99939.19
2018-08-23T06:36:04.981Z,99946.75
2018-08-23T06:38:34.534Z,99951.15
2018-08-23T06:41:04.276Z,99945.64
2018-08-23T06:43:33.421Z,99950.83
2018-08-23T06:46:02.575Z,99948.48
2018-08-23T06:48:31.330Z,99951.55
2018-08-23T06:51:00.933Z,99958.19
2018-08-23T06:53:39.409Z,99957.35
2018-08-23T06:56:07.957Z,99955.05
2018-08-23T06:58:36.462Z,99950.83
2018-08-23T07:01:09.019Z,99956.76
2018-08-23T07:03:51.013Z,99957.09
2018-08-23T07:06:20.105Z,99963.16
2018-08-23T07:08:48.533Z,99957.16
2018-08-23T07:11:21.921Z,99960.46
2018-08-23T07:13:56.370Z,99959.72
2018-08-23T07:16:24.947Z,99960.91
2018-08-23T07:18:53.445Z,99956.25
2018-08-23T07:21:21.952Z,99951.00
2018-08-23T07:23:50.318Z,99954.93
2018-08-23T07:26:18.801Z,99952.70
2018-08-23T07:28:47.265Z,99950.77
2018-08-23T07:31:15.657Z,99950.31
2018-08-23T07:33:46.124Z,99952.69
2018-08-23T07:36:26.955Z,99951.87
2018-08-23T07:38:55.580Z,99955.82
2018-08-23T07:41:23.966Z,99953.06
2018-08-23T07:43:52.429Z,99952.25
2018-08-23T07:46:29.715Z,99948.48
2018-08-23T07:48:58.409Z,99956.12
2018-08-23T07:51:26.819Z,99958.66
2018-08-23T07:53:57.649Z,99960.20
2018-08-23T07:56:28.197Z,99958.61
2018-08-23T07:58:57.663Z,99954.55
2018-08-23T08:01:31.105Z,99949.55
2018-08-23T08:04:00.295Z,99953.63
2018-08-23T08:06:29.243Z,99950.16
2018-08-23T08:08:59.197Z,99947.64
2018-08-23T08:11:29.795Z,99942.89
2018-08-23T08:14:13.323Z,99942.31
2018-08-23T08:16:41.741Z,99939.56
2018-08-23T08:19:10.156Z,99935.98
2018-08-23T08:21:38.622Z,99938.16
2018-08-23T08:24:06.991Z,99947.33
2018-08-23T08:26:35.414Z,99934.98
2018-08-23T08:29:03.777Z,99938.88
2018-08-23T08:31:32.196Z,99937.29
2018-08-23T08:34:00.808Z,99934.25
2018-08-23T08:36:31.340Z,99939.10
2018-08-23T08:39:00.332Z,99930.32
2018-08-23T08:41:33.529Z,99932.28
2018-08-23T08:44:02.101Z,99927.46
2018-08-23T08:46:30.514Z,99928.70
2018-08-23T08:48:58.922Z,99924.09
2018-08-23T08:51:32.373Z,99926.52
2018-08-23T08:54:03.148Z,99917.59
2018-08-23T08:56:36.877Z,99913.83
2018-08-23T08:59:05.310Z,99914.05
2018-08-23T09:01:33.744Z,99914.86
2018-08-23T09:04:02.163Z,99917.35
2018-08-23T09:06:46.989Z,99914.09
2018-08-23T09:09:40.967Z,99914.40
2018-08-23T09:12:11.441Z,99904.48
2018-08-23T09:14:40.799Z,99902.95
2018-08-23T09:17:39.833Z,99904.17
2018-08-23T09:20:10.321Z,99899.48
2018-08-23T09:22:41.097Z,99896.73
2018-08-23T09:25:12.220Z,99895.75
2018-08-23T09:27:40.653Z,99894.72
2018-08-23T09:30:14.433Z,99890.65
2018-08-23T09:32:42.866Z,99891.64
2018-08-23T09:35:11.718Z,99881.73
2018-08-23T09:37:40.739Z,99892.38
2018-08-23T09:40:09.340Z,99896.08
2018-08-23T09:42:38.437Z,99884.44
2018-08-23T09:45:13.673Z,99883.05
2018-08-23T09:47:42.325Z,99878.86
2018-08-23T09:50:10.794Z,99875.11
2018-08-23T09:52:43.166Z,99874.26
2018-08-23T09:55:12.874Z,99870.67
2018-08-23T09:57:41.707Z,99866.45
2018-08-23T10:00:12.742Z,99870.47
2018-08-23T10:02:46.355Z,99863.87
2018-08-23T10:05:20.178Z,99846.84
2018-08-23T10:07:53.961Z,99856.13
2018-08-23T10:10:27.737Z,99859.41
2018-08-23T10:13:01.425Z,99854.66
2018-08-23T10:15:34.972Z,99851.27
2018-08-23T10:18:08.725Z,99853.12
2018-08-23T10:20:45.388Z,99850.25
2018-08-23T10:23:16.691Z,99840.22
2018-08-23T10:25:46.325Z,99847.16
2018-08-23T10:28:15.979Z,99839.11
2018-08-23T10:30:44.687Z,99834.67
2018-08-23T10:33:13.081Z,99832.86
2018-08-23T10:35:46.738Z,99836.17
2018-08-23T10:38:16.772Z,99829.27
2018-08-23T10:40:46.221Z,99838.05
2018-08-23T10:43:15.155Z,99829.50
2018-08-23T10:45:43.843Z,99825.83
2018-08-23T10:48:16.598Z,99829.55
2018-08-23T10:50:45.947Z,99833.03
2018-08-23T10:53:14.782Z,99822.50
2018-08-23T10:55:43.766Z,99840.80
2018-08-23T10:58:12.184Z,99836.66
2018-08-23T11:00:40.627Z,99833.56
2018-08-23T11:03:09.037Z,99831.55
2018-08-23T11:05:37.526Z,99824.07
2018-08-23T11:08:11.230Z,99822.95
2018-08-23T11:10:44.922Z,99830.92
2018-08-23T11:13:18.533Z,99826.42
2018-08-23T11:15:46.947Z,99823.45
2018-08-23T11:18:20.589Z,99813.20
2018-08-23T11:20:50.361Z,99816.56
2018-08-23T11:23:23.912Z,99821.53
2018-08-23T11:25:52.389Z,99825.26
2018-08-23T11:28:21.437Z,99815.20
2018-08-23T11:30:50.482Z,99816.13
2018-08-23T11:33:18.925Z,99817.57
2018-08-23T11:35:47.378Z,99820.84
2018-08-23T11:38:15.843Z,99809.57
2018-08-23T11:40:44.254Z,99817.00
2018-08-23T11:43:12.678Z,99815.14
2018-08-23T11:45:41.109Z,99815.05
2018-08-23T11:48:09.586Z,99816.88
2018-08-23T11:50:38.843Z,99804.73
2018-08-23T11:53:07.310Z,99779.97
2018-08-23T12:00:22.610Z,99802.28
2018-08-23T12:02:58.662Z,99795.53
2018-08-23T12:05:27.694Z,99798.91
2018-08-23T12:07:57.440Z,99801.62
2018-08-23T12:10:25.898Z,99796.28
2018-08-23T12:13:05.513Z,99786.34
2018-08-23T12:15:34.037Z,99786.59
2018-08-23T12:18:02.557Z,99781.94
2018-08-23T12:20:30.970Z,99785.34
2018-08-23T12:22:59.380Z,99789.56
2018-08-23T12:25:27.828Z,99777.41
2018-08-23T12:28:00.081Z,99778.76
2018-08-23T12:30:28.650Z,99778.48
2018-08-23T12:32:57.082Z,99786.97
2018-08-23T12:35:26.207Z,99779.36
2018-08-23T12:38:01.594Z,99773.11
2018-08-23T12:40:36.833Z,99771.58
2018-08-23T12:43:08.660Z,99763.70
2018-08-23T12:45:39.933Z,99767.07
2018-08-23T12:48:18.273Z,99761.83
2018-08-23T12:50:46.675Z,99761.16
2018-08-23T12:53:15.211Z,99753.95
2018-08-23T12:55:43.577Z,99751.29
2018-08-23T12:58:13.125Z,99750.84
2018-08-23T13:00:42.697Z,99742.53
2018-08-23T13:03:11.154Z,99746.67
2018-08-23T13:05:39.900Z,99743.84
2018-08-23T13:08:08.345Z,99742.80
2018-08-23T13:10:37.192Z,99742.53
2018-08-23T13:13:05.741Z,99731.23
2018-08-23T13:15:34.147Z,99730.94
2018-08-23T13:18:03.078Z,99728.86
2018-08-23T13:20:31.459Z,99725.06
2018-08-23T13:22:59.836Z,99712.37
2018-08-23T13:25:29.930Z,99716.59
2018-08-23T13:27:58.333Z,99708.64
2018-08-23T13:30:26.716Z,99713.44
2018-08-23T13:32:55.195Z,99713.96
2018-08-23T13:35:24.763Z,99705.51
2018-08-23T13:37:53.182Z,99708.60
2018-08-23T13:40:21.588Z,99700.48
2018-08-23T13:42:53.293Z,99701.85
2018-08-23T13:45:21.750Z,99693.36
2018-08-23T13:47:50.157Z,99694.28
2018-08-23T13:50:18.593Z,99682.27
2018-08-23T13:52:47.019Z,99690.83
2018-08-23T13:55:15.444Z,99683.70
2018-08-23T13:57:43.946Z,99677.81
2018-08-23T14:00:43.210Z,99682.34
2018-08-23T14:03:12.189Z,99690.78
2018-08-23T14:05:41.537Z,99668.03
2018-08-23T14:08:10.401Z,99682.66
2018-08-23T14:13:32.484Z,99681.05
2018-08-23T14:16:04.414Z,99679.95
2018-08-23T14:18:34.190Z,99677.28
2018-08-23T14:21:02.702Z,99673.58
2018-08-23T14:23:31.105Z,99664.88
2018-08-23T14:25:59.570Z,99667.30
2018-08-23T14:28:27.976Z,99661.22
2018-08-23T14:30:56.418Z,99660.88
2018-08-23T14:33:24.825Z,99654.69
2018-08-23T14:35:53.349Z,99656.70
2018-08-23T14:38:22.042Z,99652.09
2018-08-23T14:40:50.502Z,99657.77
2018-08-23T14:43:18.917Z,99650.15
2018-08-23T14:45:47.377Z,99651.09
2018-08-23T14:48:17.510Z,99650.17
2018-08-23T14:50:50.148Z,99653.80
2018-08-23T14:53:23.984Z,99644.24
2018-08-23T14:55:57.515Z,99636.66
2018-08-23T14:58:26.056Z,99638.09
2018-08-23T15:00:54.538Z,99635.63
2018-08-23T15:03:30.954Z,99630.00
2018-08-23T15:05:59.441Z,99629.25
2018-08-23T15:08:27.898Z,99609.91
2018-08-23T15:10:56.727Z,99610.38
2018-08-23T15:13:25.168Z,99601.22
2018-08-23T15:15:54.127Z,99600.27
2018-08-23T15:18:23.120Z,99605.47
2018-08-23T15:20:52.011Z,99608.86
2018-08-23T15:23:20.436Z,99597.22
2018-08-23T15:25:48.894Z,99600.95
2018-08-23T15:28:17.347Z,99606.44
2018-08-23T15:30:45.793Z,99603.09
2018-08-23T15:33:14.215Z,99601.48
2018-08-23T15:35:42.717Z,99598.97
2018-08-23T15:38:11.194Z,99603.53
2018-08-23T15:40:39.635Z,99600.89
2018-08-23T15:43:08.050Z,99601.35
2018-08-23T15:45:36.518Z,99603.98
2018-08-23T15:48:05.304Z,99604.27
2018-08-23T15:50:33.697Z,99580.84
2018-08-23T15:53:02.086Z,99605.74
2018-08-23T15:55:30.556Z,99601.41
2018-08-23T15:57:58.906Z,99600.07
2018-08-23T16:00:31.427Z,99607.57
2018-08-23T16:02:59.799Z,99603.11
2018-08-23T16:05:28.194Z,99604.61
2018-08-23T16:07:56.574Z,99606.36
2018-08-23T16:10:25.049Z,99607.52
2018-08-23T16:12:53.362Z,99590.41
2018-08-23T16:15:23.409Z,99605.38
2018-08-23T16:17:57.278Z,99602.13
2018-08-23T16:20:30.947Z,99595.66
2018-08-23T16:22:59.321Z,99603.05
2018-08-23T16:25:27.755Z,99587.72
2018-08-23T16:27:56.097Z,99594.84
2018-08-23T16:30:24.529Z,99605.48
2018-08-23T16:32:52.917Z,99604.44
2018-08-23T16:35:21.303Z,99608.69
2018-08-23T16:37:49.712Z,99609.34
2018-08-23T16:40:23.377Z,99610.70
2018-08-23T16:42:51.805Z,99611.31
2018-08-23T16:45:20.190Z,99608.64
2018-08-23T16:47:48.623Z,99608.95
2018-08-23T16:50:16.993Z,99585.19
2018-08-23T16:52:45.441Z,99612.16
2018-08-23T16:55:13.814Z,99602.63
2018-08-23T16:57:42.216Z,99607.00
2018-08-23T17:00:10.626Z,99596.38
2018-08-23T17:02:39.226Z,99596.34
2018-08-23T17:05:07.597Z,99600.08
2018-08-23T17:07:36.017Z,99597.87
2018-08-23T17:10:04.522Z,99601.27
2018-08-23T17:12:32.886Z,99588.91
2018-08-23T17:15:01.614Z,99601.03
2018-08-23T17:17:31.941Z,99598.63
2018-08-23T17:20:00.319Z,99597.68
2018-08-23T17:22:29.453Z,99597.27
2018-08-23T17:24:57.986Z,99599.38
2018-08-23T17:27:26.653Z,99610.57
2018-08-23T17:29:55.047Z,99609.42
2018-08-23T17:32:23.913Z,99606.05
2018-08-23T17:34:53.779Z,99603.98
2018-08-23T17:37:22.529Z,99609.84
2018-08-23T17:39:51.836Z,99609.21
2018-08-23T17:42:25.309Z,99613.14
2018-08-23T17:44:53.878Z,99613.10
2018-08-23T17:47:28.918Z,99616.66
2018-08-23T17:49:57.829Z,99610.66
2018-08-23T17:52:27.291Z,99620.70
2018-08-23T17:54:56.024Z,99616.98
2018-08-23T17:57:25.103Z,99622.09
2018-08-23T17:59:56.184Z,99618.39
2018-08-23T18:02:24.934Z,99611.96
2018-08-23T18:04:54.118Z,99626.84
2018-08-23T18:07:23.134Z,99627.00
2018-08-23T18:09:54.111Z,99624.75
2018-08-23T18:12:23.621Z,99629.27
2018-08-23T18:14:52.539Z,99633.77
2018-08-23T18:17:21.818Z,99633.36
2018-08-23T18:19:50.622Z,99636.40
2018-08-23T18:22:24.620Z,99641.53
2018-08-23T18:24:53.378Z,99645.25
2018-08-23T18:27:23.195Z,99643.86
2018-08-23T18:29:56.660Z,99651.88
2018-08-23T18:32:26.376Z,99651.31
2018-08-23T18:34:55.905Z,99659.44
2018-08-23T18:37:24.739Z,99665.22
2018-08-23T18:39:57.068Z,99664.55
2018-08-23T18:42:25.914Z,99660.52
2018-08-23T18:44:55.997Z,99664.70
2018-08-23T18:47:25.850Z,99660.88
2018-08-23T18:49:55.989Z,99664.11
2018-08-23T18:52:25.126Z,99670.33
2018-08-23T18:54:53.965Z,99683.28
2018-08-23T18:57:23.766Z,99681.19
2018-08-23T18:59:53.703Z,99681.19
2018-08-23T19:02:24.840Z,99680.75
2018-08-23T19:04:54.453Z,99688.11
2018-08-23T19:07:28.882Z,99683.75
2018-08-23T19:10:00.942Z,99685.83
2018-08-23T19:12:30.929Z,99695.38
2018-08-23T19:15:01.323Z,99689.50
2018-08-23T19:17:36.396Z,99688.47
2018-08-23T19:20:06.697Z,99696.06
2018-08-23T19:22:35.725Z,99695.25
2018-08-23T19:25:04.962Z,99693.70
2018-08-23T19:27:34.063Z,99697.73
2018-08-23T19:30:03.288Z,99695.30
2018-08-23T19:32:32.085Z,99695.64
2018-08-23T19:35:01.140Z,99692.64
2018-08-23T19:37:29.973Z,99691.81
2018-08-23T19:39:58.574Z,99688.48
2018-08-23T19:42:27.989Z,99682.00
2018-08-23T19:45:01.358Z,99683.38
2018-08-23T19:47:35.101Z,99681.98
2018-08-23T19:50:08.062Z,99683.78
2018-08-23T19:52:37.644Z,99689.77
2018-08-23T19:55:07.634Z,99686.42
2018-08-23T19:57:50.295Z,99685.34
2018-08-23T20:00:20.366Z,99686.31
2018-08-23T20:02:49.617Z,99690.02
2018-08-23T20:05:24.067Z,99694.89
2018-08-23T20:07:52.632Z,99695.95
2018-08-23T20:10:21.978Z,99694.86
2018-08-23T20:12:51.154Z,99703.36
2018-08-23T20:15:24.789Z,99706.55
2018-08-23T20:17:57.126Z,99692.91
2018-08-23T20:20:26.590Z,99701.00
2018-08-23T20:22:56.423Z,99694.34
2018-08-23T20:25:27.407Z,99694.97
2018-08-23T20:27:56.108Z,99688.19
2018-08-23T20:30:25.086Z,99688.53
2018-08-23T20:32:54.376Z,99690.55
2018-08-23T20:35:23.838Z,99682.34
2018-08-23T20:37:52.518Z,99688.97
2018-08-23T20:40:22.686Z,99682.95
2018-08-23T20:42:52.198Z,99684.77
2018-08-23T20:45:20.766Z,99684.05
2018-08-23T20:47:50.563Z,99691.48
2018-08-23T20:50:19.475Z,99688.19
2018-08-23T20:52:48.502Z,99693.09
2018-08-23T20:55:17.637Z,99682.36
2018-08-23T20:57:46.366Z,99690.45
2018-08-23T21:00:21.681Z,99687.16
2018-08-23T21:02:50.565Z,99686.64
2018-08-23T21:05:20.750Z,99686.98
2018-08-23T21:07:49.956Z,99688.58
2018-08-23T21:10:19.914Z,99691.72
2018-08-23T21:12:50.765Z,99692.53
2018-08-23T21:15:20.550Z,99695.09
2018-08-23T21:17:49.725Z,99693.66
2018-08-23T21:20:22.624Z,99694.09
2018-08-23T21:22:51.902Z,99701.15
2018-08-23T21:25:20.499Z,99701.58
2018-08-23T21:27:49.943Z,99696.37
2018-08-23T21:30:20.003Z,99702.56
2018-08-23T21:32:49.210Z,99696.41
2018-08-23T21:35:18.069Z,99697.78
2018-08-23T21:37:47.718Z,99696.41
2018-08-23T21:40:17.350Z,99692.84
2018-08-23T21:42:45.922Z,99694.08
2018-08-23T21:45:15.565Z,99689.30
2018-08-23T21:47:45.229Z,99689.69
2018-08-23T21:50:15.198Z,99694.52
2018-08-23T21:52:45.057Z,99695.94
2018-08-23T21:55:14.349Z,99687.67
2018-08-23T21:57:43.413Z,99694.56
2018-08-23T22:00:12.725Z,99693.36
2018-08-23T22:02:43.903Z,99696.37
2018-08-23T22:05:13.301Z,99700.41
2018-08-23T22:07:42.556Z,99692.48
2018-08-23T22:10:18.785Z,99689.66
2018-08-23T22:12:52.066Z,99675.64
2018-08-23T22:15:21.309Z,99673.64
2018-08-23T22:17:51.086Z,99680.95
2018-08-23T22:20:20.840Z,99680.77
2018-08-23T22:22:49.985Z,99679.31
2018-08-23T22:25:19.217Z,99679.23
2018-08-23T22:27:47.654Z,99684.09
2018-08-23T22:30:16.352Z,99684.17
2018-08-23T22:32:45.385Z,99680.87
2018-08-23T22:35:32.625Z,99663.39
2018-08-23T22:38:02.532Z,99679.75
2018-08-23T22:40:31.548Z,99675.08
2018-08-23T22:43:01.910Z,99666.58
2018-08-23T22:45:35.744Z,99662.78
2018-08-23T22:48:05.809Z,99654.50
2018-08-23T22:50:34.490Z,99658.63
2018-08-23T22:53:03.139Z,99647.62
2018-08-23T22:55:32.389Z,99651.37
2018-08-23T22:58:01.285Z,99657.02
2018-08-23T23:00:36.058Z,99654.55
2018-08-23T23:03:09.969Z,99648.74
2018-08-23T23:05:43.049Z,99654.61
2018-08-23T23:08:12.353Z,99650.67
2018-08-23T23:10:41.329Z,99647.52
2018-08-23T23:13:10.086Z,99649.52
2018-08-23T23:15:39.605Z,99641.35
2018-08-23T23:18:08.777Z,99650.98
2018-08-23T23:20:37.296Z,99649.38
2018-08-23T23:23:05.989Z,99651.67
2018-08-23T23:25:35.582Z,99654.67
2018-08-23T23:28:04.428Z,99644.57
2018-08-23T23:30:33.836Z,99646.42
2018-08-23T23:33:02.460Z,99646.28
2018-08-23T23:35:31.640Z,99644.09
2018-08-23T23:38:00.886Z,99638.03
2018-08-23T23:40:30.197Z,99636.95
2018-08-23T23:42:58.830Z,99634.45
2018-08-23T23:45:28.565Z,99641.81
2018-08-23T23:47:58.202Z,99633.89
2018-08-23T23:50:26.857Z,99630.88
2018-08-23T23:52:55.954Z,99633.30
2018-08-23T23:55:25.289Z,99634.27
2018-08-23T23:57:53.998Z,99627.72
